Terminal Aerodrome Forecast
Issued by NWS

Home | Current Version | Previous Version | Text Only | Print | Product List | Glossary On
Versions: 1 2 3 4 5 6 7 8 9 10 11 12 13 14 15 16
000
FTUS45 KABQ 220326 AAA
TAFAEG
TAF AMD
KAEG 220326Z 2203/2224 03010KT P6SM VCSH SCT050 BKN080
      TEMPO 2205/2208 03015G25KT
     FM221000 35006KT P6SM SCT100
     FM222330 12010KT P6SM VCTS BKN100CB
      AMD NOT SKED=

USA.gov is the U.S. government's official web portal to all federal, state and local government web resources and services.